sensor_id;sensor_type;location;lat;lon;timestamp;temperature;humidity
37786;DHT22;23625;48.784;9.336;2023-04-19T00:00:26;10.40;99.90
37786;DHT22;23625;48.784;9.336;2023-04-19T00:02:52;10.40;99.90
37786;DHT22;23625;48.784;9.336;2023-04-19T00:05:18;10.30;99.90
37786;DHT22;23625;48.784;9.336;2023-04-19T00:07:46;10.30;99.90
37786;DHT22;23625;48.784;9.336;2023-04-19T00:10:12;10.30;99.90
37786;DHT22;23625;48.784;9.336;2023-04-19T00:12:37;10.30;99.90
37786;DHT22;23625;48.784;9.336;2023-04-19T00:15:04;10.30;99.90
37786;DHT22;23625;48.784;9.336;2023-04-19T00:17:30;10.20;99.90
37786;DHT22;23625;48.784;9.336;2023-04-19T00:19:56;10.20;99.90
37786;DHT22;23625;48.784;9.336;2023-04-19T00:22:22;10.20;99.90
37786;DHT22;23625;48.784;9.336;2023-04-19T00:24:47;10.30;99.90
37786;DHT22;23625;48.784;9.336;2023-04-19T00:27:13;10.20;99.90
37786;DHT22;23625;48.784;9.336;2023-04-19T00:29:38;10.20;99.90
37786;DHT22;23625;48.784;9.336;2023-04-19T00:32:04;10.20;99.90
37786;DHT22;23625;48.784;9.336;2023-04-19T00:34:30;10.10;99.90
37786;DHT22;23625;48.784;9.336;2023-04-19T00:36:56;10.10;99.90
37786;DHT22;23625;48.784;9.336;2023-04-19T00:39:22;10.10;99.90
37786;DHT22;23625;48.784;9.336;2023-04-19T00:41:48;10.10;99.90
37786;DHT22;23625;48.784;9.336;2023-04-19T00:44:13;10.10;99.90
37786;DHT22;23625;48.784;9.336;2023-04-19T00:46:39;10.00;99.90
37786;DHT22;23625;48.784;9.336;2023-04-19T00:49:05;10.00;99.90
37786;DHT22;23625;48.784;9.336;2023-04-19T00:51:31;10.00;99.90
37786;DHT22;23625;48.784;9.336;2023-04-19T00:53:57;10.00;99.90
37786;DHT22;23625;48.784;9.336;2023-04-19T00:56:24;10.00;99.90
37786;DHT22;23625;48.784;9.336;2023-04-19T00:58:52;10.00;99.90
37786;DHT22;23625;48.784;9.336;2023-04-19T01:01:17;10.00;99.90
37786;DHT22;23625;48.784;9.336;2023-04-19T01:03:45;10.00;99.90
37786;DHT22;23625;48.784;9.336;2023-04-19T01:06:10;10.00;99.90
37786;DHT22;23625;48.784;9.336;2023-04-19T01:08:36;10.00;99.90
37786;DHT22;23625;48.784;9.336;2023-04-19T01:11:02;10.00;99.90
37786;DHT22;23625;48.784;9.336;2023-04-19T01:13:27;10.00;99.90
37786;DHT22;23625;48.784;9.336;2023-04-19T01:15:54;9.90;99.90
37786;DHT22;23625;48.784;9.336;2023-04-19T01:18:19;9.90;99.90
37786;DHT22;23625;48.784;9.336;2023-04-19T01:20:46;9.90;99.90
37786;DHT22;23625;48.784;9.336;2023-04-19T01:23:11;9.90;99.90
37786;DHT22;23625;48.784;9.336;2023-04-19T01:25:37;9.90;99.90
37786;DHT22;23625;48.784;9.336;2023-04-19T01:28:03;9.90;99.90
37786;DHT22;23625;48.784;9.336;2023-04-19T01:30:29;9.90;99.90
37786;DHT22;23625;48.784;9.336;2023-04-19T01:32:54;9.90;99.90
37786;DHT22;23625;48.784;9.336;2023-04-19T01:35:20;9.80;99.90
37786;DHT22;23625;48.784;9.336;2023-04-19T01:37:45;9.90;99.90
37786;DHT22;23625;48.784;9.336;2023-04-19T01:40:11;9.80;99.90
37786;DHT22;23625;48.784;9.336;2023-04-19T01:42:37;9.80;99.90
37786;DHT22;23625;48.784;9.336;2023-04-19T01:45:03;9.80;99.90
37786;DHT22;23625;48.784;9.336;2023-04-19T01:47:29;9.80;99.90
37786;DHT22;23625;48.784;9.336;2023-04-19T01:49:54;9.80;99.90
37786;DHT22;23625;48.784;9.336;2023-04-19T01:52:20;9.80;99.90
37786;DHT22;23625;48.784;9.336;2023-04-19T01:54:46;9.80;99.90
37786;DHT22;23625;48.784;9.336;2023-04-19T01:57:11;9.80;99.90
37786;DHT22;23625;48.784;9.336;2023-04-19T01:59:37;9.80;99.90
37786;DHT22;23625;48.784;9.336;2023-04-19T02:02:05;9.70;99.90
37786;DHT22;23625;48.784;9.336;2023-04-19T02:04:32;9.70;99.90
37786;DHT22;23625;48.784;9.336;2023-04-19T02:06:58;9.70;99.90
37786;DHT22;23625;48.784;9.336;2023-04-19T02:09:24;9.70;99.90
37786;DHT22;23625;48.784;9.336;2023-04-19T02:11:49;9.70;99.90
37786;DHT22;23625;48.784;9.336;2023-04-19T02:14:15;9.80;99.90
37786;DHT22;23625;48.784;9.336;2023-04-19T02:16:40;9.80;99.90
37786;DHT22;23625;48.784;9.336;2023-04-19T02:19:06;9.80;99.90
37786;DHT22;23625;48.784;9.336;2023-04-19T02:21:32;9.70;99.90
37786;DHT22;23625;48.784;9.336;2023-04-19T02:23:57;9.70;99.90
37786;DHT22;23625;48.784;9.336;2023-04-19T02:26:23;9.70;99.90
37786;DHT22;23625;48.784;9.336;2023-04-19T02:28:52;9.70;99.90
37786;DHT22;23625;48.784;9.336;2023-04-19T02:31:17;9.80;99.90
37786;DHT22;23625;48.784;9.336;2023-04-19T02:33:43;9.80;99.90
37786;DHT22;23625;48.784;9.336;2023-04-19T02:36:11;9.80;99.90
37786;DHT22;23625;48.784;9.336;2023-04-19T02:38:36;9.70;99.90
37786;DHT22;23625;48.784;9.336;2023-04-19T02:41:02;9.70;99.90
37786;DHT22;23625;48.784;9.336;2023-04-19T02:43:29;9.60;99.90
37786;DHT22;23625;48.784;9.336;2023-04-19T02:45:55;9.70;99.90
37786;DHT22;23625;48.784;9.336;2023-04-19T02:48:20;9.60;99.90
37786;DHT22;23625;48.784;9.336;2023-04-19T02:50:46;9.70;99.90
37786;DHT22;23625;48.784;9.336;2023-04-19T02:53:12;9.70;99.90
37786;DHT22;23625;48.784;9.336;2023-04-19T02:55:37;9.70;99.90
37786;DHT22;23625;48.784;9.336;2023-04-19T02:58:03;9.70;99.90
37786;DHT22;23625;48.784;9.336;2023-04-19T03:00:29;9.60;99.90
37786;DHT22;23625;48.784;9.336;2023-04-19T03:02:55;9.60;99.90
37786;DHT22;23625;48.784;9.336;2023-04-19T03:05:22;9.60;99.90
37786;DHT22;23625;48.784;9.336;2023-04-19T03:07:47;9.50;99.90
37786;DHT22;23625;48.784;9.336;2023-04-19T03:10:13;9.60;99.90
37786;DHT22;23625;48.784;9.336;2023-04-19T03:12:39;9.60;99.90
37786;DHT22;23625;48.784;9.336;2023-04-19T03:15:06;9.50;99.90
37786;DHT22;23625;48.784;9.336;2023-04-19T03:17:32;9.60;99.90
37786;DHT22;23625;48.784;9.336;2023-04-19T03:19:58;9.50;99.90
37786;DHT22;23625;48.784;9.336;2023-04-19T03:22:23;9.50;99.90
37786;DHT22;23625;48.784;9.336;2023-04-19T03:24:49;9.60;99.90
37786;DHT22;23625;48.784;9.336;2023-04-19T03:27:14;9.60;99.90
37786;DHT22;23625;48.784;9.336;2023-04-19T03:29:40;9.70;99.90
37786;DHT22;23625;48.784;9.336;2023-04-19T03:32:06;9.60;99.90
37786;DHT22;23625;48.784;9.336;2023-04-19T03:34:32;9.50;99.90
37786;DHT22;23625;48.784;9.336;2023-04-19T03:36:58;9.40;99.90
37786;DHT22;23625;48.784;9.336;2023-04-19T03:39:23;9.30;99.90
37786;DHT22;23625;48.784;9.336;2023-04-19T03:41:49;9.40;99.90
37786;DHT22;23625;48.784;9.336;2023-04-19T03:44:15;9.30;99.90
37786;DHT22;23625;48.784;9.336;2023-04-19T03:46:40;9.20;99.90
37786;DHT22;23625;48.784;9.336;2023-04-19T03:49:06;9.20;99.90
37786;DHT22;23625;48.784;9.336;2023-04-19T03:51:32;9.00;99.90
37786;DHT22;23625;48.784;9.336;2023-04-19T03:53:57;8.80;99.90
37786;DHT22;23625;48.784;9.336;2023-04-19T03:56:23;8.80;99.90
37786;DHT22;23625;48.784;9.336;2023-04-19T03:58:51;8.70;99.90
37786;DHT22;23625;48.784;9.336;2023-04-19T04:01:18;8.60;99.90
37786;DHT22;23625;48.784;9.336;2023-04-19T04:03:44;8.50;99.90
37786;DHT22;23625;48.784;9.336;2023-04-19T04:06:09;8.50;99.90
37786;DHT22;23625;48.784;9.336;2023-04-19T04:08:35;8.40;99.90
37786;DHT22;23625;48.784;9.336;2023-04-19T04:11:01;8.30;99.90
37786;DHT22;23625;48.784;9.336;2023-04-19T04:13:26;8.20;99.90
37786;DHT22;23625;48.784;9.336;2023-04-19T04:15:52;8.10;99.90
37786;DHT22;23625;48.784;9.336;2023-04-19T04:18:18;8.10;99.90
37786;DHT22;23625;48.784;9.336;2023-04-19T04:20:44;8.00;99.90
37786;DHT22;23625;48.784;9.336;2023-04-19T04:23:10;8.00;99.90
37786;DHT22;23625;48.784;9.336;2023-04-19T04:25:35;7.80;99.90
37786;DHT22;23625;48.784;9.336;2023-04-19T04:28:03;7.80;99.90
37786;DHT22;23625;48.784;9.336;2023-04-19T04:30:28;7.70;99.90
37786;DHT22;23625;48.784;9.336;2023-04-19T04:32:54;7.60;99.90
37786;DHT22;23625;48.784;9.336;2023-04-19T04:35:22;7.60;99.90
37786;DHT22;23625;48.784;9.336;2023-04-19T04:37:48;7.60;99.90
37786;DHT22;23625;48.784;9.336;2023-04-19T04:40:13;7.70;99.90
37786;DHT22;23625;48.784;9.336;2023-04-19T04:42:40;7.70;99.90
37786;DHT22;23625;48.784;9.336;2023-04-19T04:45:06;7.50;99.90
37786;DHT22;23625;48.784;9.336;2023-04-19T04:47:33;7.40;99.90
37786;DHT22;23625;48.784;9.336;2023-04-19T04:49:59;7.40;99.90
37786;DHT22;23625;48.784;9.336;2023-04-19T04:52:25;7.40;99.90
37786;DHT22;23625;48.784;9.336;2023-04-19T04:54:50;7.40;99.90
37786;DHT22;23625;48.784;9.336;2023-04-19T04:57:16;7.40;99.90
37786;DHT22;23625;48.784;9.336;2023-04-19T04:59:42;7.30;99.90
37786;DHT22;23625;48.784;9.336;2023-04-19T05:02:07;7.20;99.90
37786;DHT22;23625;48.784;9.336;2023-04-19T05:04:33;7.20;99.90
37786;DHT22;23625;48.784;9.336;2023-04-19T05:06:58;7.20;99.90
37786;DHT22;23625;48.784;9.336;2023-04-19T05:09:24;7.20;99.90
37786;DHT22;23625;48.784;9.336;2023-04-19T05:11:49;7.20;99.90
37786;DHT22;23625;48.784;9.336;2023-04-19T05:14:15;7.30;99.90
37786;DHT22;23625;48.784;9.336;2023-04-19T05:16:41;7.20;99.90
37786;DHT22;23625;48.784;9.336;2023-04-19T05:19:06;7.20;99.90
37786;DHT22;23625;48.784;9.336;2023-04-19T05:21:33;7.30;99.90
37786;DHT22;23625;48.784;9.336;2023-04-19T05:23:59;7.30;99.90
37786;DHT22;23625;48.784;9.336;2023-04-19T05:26:25;7.30;99.90
37786;DHT22;23625;48.784;9.336;2023-04-19T05:28:50;7.40;99.90
37786;DHT22;23625;48.784;9.336;2023-04-19T05:31:16;7.50;99.90
37786;DHT22;23625;48.784;9.336;2023-04-19T05:33:42;7.50;99.90
37786;DHT22;23625;48.784;9.336;2023-04-19T05:36:08;7.50;99.90
37786;DHT22;23625;48.784;9.336;2023-04-19T05:38:33;7.60;99.90
37786;DHT22;23625;48.784;9.336;2023-04-19T05:40:59;7.70;99.90
37786;DHT22;23625;48.784;9.336;2023-04-19T05:43:25;7.80;99.90
37786;DHT22;23625;48.784;9.336;2023-04-19T05:45:51;7.80;99.90
37786;DHT22;23625;48.784;9.336;2023-04-19T05:48:16;7.90;99.90
37786;DHT22;23625;48.784;9.336;2023-04-19T05:50:42;8.00;99.90
37786;DHT22;23625;48.784;9.336;2023-04-19T05:53:07;8.10;99.90
37786;DHT22;23625;48.784;9.336;2023-04-19T05:55:33;8.30;99.90
37786;DHT22;23625;48.784;9.336;2023-04-19T05:57:58;8.30;99.90
37786;DHT22;23625;48.784;9.336;2023-04-19T06:00:25;8.50;99.90
37786;DHT22;23625;48.784;9.336;2023-04-19T06:02:50;8.50;99.90
37786;DHT22;23625;48.784;9.336;2023-04-19T06:05:16;8.60;99.90
37786;DHT22;23625;48.784;9.336;2023-04-19T06:07:41;8.70;99.90
37786;DHT22;23625;48.784;9.336;2023-04-19T06:10:07;8.80;99.90
37786;DHT22;23625;48.784;9.336;2023-04-19T06:12:33;8.90;99.90
37786;DHT22;23625;48.784;9.336;2023-04-19T06:14:59;8.90;99.90
37786;DHT22;23625;48.784;9.336;2023-04-19T06:17:24;9.00;99.90
37786;DHT22;23625;48.784;9.336;2023-04-19T06:19:51;9.10;99.90
37786;DHT22;23625;48.784;9.336;2023-04-19T06:22:17;9.20;99.90
37786;DHT22;23625;48.784;9.336;2023-04-19T06:24:46;9.30;99.90
37786;DHT22;23625;48.784;9.336;2023-04-19T06:27:14;9.50;99.90
37786;DHT22;23625;48.784;9.336;2023-04-19T06:29:39;9.50;99.90
37786;DHT22;23625;48.784;9.336;2023-04-19T06:32:05;9.50;99.90
37786;DHT22;23625;48.784;9.336;2023-04-19T06:34:31;9.60;99.90
37786;DHT22;23625;48.784;9.336;2023-04-19T06:36:56;9.60;99.90
37786;DHT22;23625;48.784;9.336;2023-04-19T06:39:22;9.70;99.90
37786;DHT22;23625;48.784;9.336;2023-04-19T06:41:47;9.60;99.90
37786;DHT22;23625;48.784;9.336;2023-04-19T06:44:16;9.60;99.90
37786;DHT22;23625;48.784;9.336;2023-04-19T06:46:42;9.70;99.90
37786;DHT22;23625;48.784;9.336;2023-04-19T06:49:07;9.70;99.90
37786;DHT22;23625;48.784;9.336;2023-04-19T06:51:33;9.80;99.90
37786;DHT22;23625;48.784;9.336;2023-04-19T06:53:59;9.80;99.90
37786;DHT22;23625;48.784;9.336;2023-04-19T06:56:43;9.90;99.90
37786;DHT22;23625;48.784;9.336;2023-04-19T06:59:14;9.90;99.90
37786;DHT22;23625;48.784;9.336;2023-04-19T07:01:41;10.00;99.90
37786;DHT22;23625;48.784;9.336;2023-04-19T07:04:07;10.00;99.90
37786;DHT22;23625;48.784;9.336;2023-04-19T07:06:34;10.10;99.90
37786;DHT22;23625;48.784;9.336;2023-04-19T07:08:59;10.20;99.90
37786;DHT22;23625;48.784;9.336;2023-04-19T07:11:25;10.30;99.90
37786;DHT22;23625;48.784;9.336;2023-04-19T07:13:51;10.40;99.90
37786;DHT22;23625;48.784;9.336;2023-04-19T07:16:16;10.40;99.90
37786;DHT22;23625;48.784;9.336;2023-04-19T07:18:42;10.50;99.90
37786;DHT22;23625;48.784;9.336;2023-04-19T07:21:08;10.50;99.90
37786;DHT22;23625;48.784;9.336;2023-04-19T07:23:34;10.50;99.90
37786;DHT22;23625;48.784;9.336;2023-04-19T07:26:00;10.40;99.90
37786;DHT22;23625;48.784;9.336;2023-04-19T07:28:28;10.40;99.90
37786;DHT22;23625;48.784;9.336;2023-04-19T07:30:53;10.50;99.90
37786;DHT22;23625;48.784;9.336;2023-04-19T07:33:19;10.60;99.90
37786;DHT22;23625;48.784;9.336;2023-04-19T07:35:45;10.70;99.90
37786;DHT22;23625;48.784;9.336;2023-04-19T07:38:11;10.80;99.90
37786;DHT22;23625;48.784;9.336;2023-04-19T07:40:37;10.80;99.90
37786;DHT22;23625;48.784;9.336;2023-04-19T07:43:02;11.00;99.90
37786;DHT22;23625;48.784;9.336;2023-04-19T07:45:29;11.10;99.90
37786;DHT22;23625;48.784;9.336;2023-04-19T07:47:55;11.20;99.90
37786;DHT22;23625;48.784;9.336;2023-04-19T07:50:20;11.30;99.90
37786;DHT22;23625;48.784;9.336;2023-04-19T07:52:46;11.40;99.90
37786;DHT22;23625;48.784;9.336;2023-04-19T07:55:11;11.40;99.90
37786;DHT22;23625;48.784;9.336;2023-04-19T07:57:37;11.40;99.90
37786;DHT22;23625;48.784;9.336;2023-04-19T08:00:03;11.40;99.90
37786;DHT22;23625;48.784;9.336;2023-04-19T08:02:29;11.40;99.90
37786;DHT22;23625;48.784;9.336;2023-04-19T08:04:55;11.50;99.90
37786;DHT22;23625;48.784;9.336;2023-04-19T08:07:22;11.50;99.90
37786;DHT22;23625;48.784;9.336;2023-04-19T08:09:48;11.60;99.90
37786;DHT22;23625;48.784;9.336;2023-04-19T08:12:14;11.60;99.90
37786;DHT22;23625;48.784;9.336;2023-04-19T08:14:40;11.60;99.90
37786;DHT22;23625;48.784;9.336;2023-04-19T08:17:06;11.50;99.90
37786;DHT22;23625;48.784;9.336;2023-04-19T08:19:32;11.60;99.90
37786;DHT22;23625;48.784;9.336;2023-04-19T08:21:58;11.50;99.90
37786;DHT22;23625;48.784;9.336;2023-04-19T08:24:23;11.50;99.90
37786;DHT22;23625;48.784;9.336;2023-04-19T08:26:49;11.60;99.90
37786;DHT22;23625;48.784;9.336;2023-04-19T08:29:21;11.60;99.90
37786;DHT22;23625;48.784;9.336;2023-04-19T08:31:47;11.60;99.90
37786;DHT22;23625;48.784;9.336;2023-04-19T08:34:13;11.60;99.90
37786;DHT22;23625;48.784;9.336;2023-04-19T08:36:39;11.70;99.90
37786;DHT22;23625;48.784;9.336;2023-04-19T08:39:05;11.70;99.90
37786;DHT22;23625;48.784;9.336;2023-04-19T08:41:30;11.70;99.90
37786;DHT22;23625;48.784;9.336;2023-04-19T08:43:57;11.70;99.90
37786;DHT22;23625;48.784;9.336;2023-04-19T08:46:23;11.80;99.90
37786;DHT22;23625;48.784;9.336;2023-04-19T08:48:49;11.80;99.90
37786;DHT22;23625;48.784;9.336;2023-04-19T08:51:16;11.90;99.90
37786;DHT22;23625;48.784;9.336;2023-04-19T08:53:44;12.00;99.90
37786;DHT22;23625;48.784;9.336;2023-04-19T08:56:10;12.10;99.90
37786;DHT22;23625;48.784;9.336;2023-04-19T08:58:36;12.20;99.90
37786;DHT22;23625;48.784;9.336;2023-04-19T09:01:06;12.20;99.90
37786;DHT22;23625;48.784;9.336;2023-04-19T09:03:33;12.30;99.90
37786;DHT22;23625;48.784;9.336;2023-04-19T09:06:00;12.40;99.90
37786;DHT22;23625;48.784;9.336;2023-04-19T09:08:28;12.50;99.90
37786;DHT22;23625;48.784;9.336;2023-04-19T09:11:00;12.60;99.90
37786;DHT22;23625;48.784;9.336;2023-04-19T09:13:30;12.70;99.90
37786;DHT22;23625;48.784;9.336;2023-04-19T09:15:56;12.70;99.90
37786;DHT22;23625;48.784;9.336;2023-04-19T09:18:23;12.70;99.90
37786;DHT22;23625;48.784;9.336;2023-04-19T09:20:51;12.70;99.90
37786;DHT22;23625;48.784;9.336;2023-04-19T09:23:27;12.80;98.60
37786;DHT22;23625;48.784;9.336;2023-04-19T09:25:55;12.80;99.90
37786;DHT22;23625;48.784;9.336;2023-04-19T09:28:25;12.70;99.90
37786;DHT22;23625;48.784;9.336;2023-04-19T09:30:51;12.70;99.00
37786;DHT22;23625;48.784;9.336;2023-04-19T09:33:36;12.70;99.60
37786;DHT22;23625;48.784;9.336;2023-04-19T09:36:06;12.70;99.90
37786;DHT22;23625;48.784;9.336;2023-04-19T09:38:48;12.80;99.90
37786;DHT22;23625;48.784;9.336;2023-04-19T09:41:14;12.90;99.90
37786;DHT22;23625;48.784;9.336;2023-04-19T09:43:40;13.00;98.50
37786;DHT22;23625;48.784;9.336;2023-04-19T09:46:06;13.10;95.40
37786;DHT22;23625;48.784;9.336;2023-04-19T09:48:31;13.30;97.10
37786;DHT22;23625;48.784;9.336;2023-04-19T09:50:59;13.50;93.50
37786;DHT22;23625;48.784;9.336;2023-04-19T09:53:26;13.50;94.90
37786;DHT22;23625;48.784;9.336;2023-04-19T09:55:52;13.60;95.30
37786;DHT22;23625;48.784;9.336;2023-04-19T09:58:19;13.60;96.20
37786;DHT22;23625;48.784;9.336;2023-04-19T10:00:46;13.70;94.50
37786;DHT22;23625;48.784;9.336;2023-04-19T10:03:16;13.70;93.70
37786;DHT22;23625;48.784;9.336;2023-04-19T10:05:43;13.60;93.30
37786;DHT22;23625;48.784;9.336;2023-04-19T10:08:11;13.60;95.00
37786;DHT22;23625;48.784;9.336;2023-04-19T10:10:39;13.60;95.60
37786;DHT22;23625;48.784;9.336;2023-04-19T10:13:10;13.40;95.30
37786;DHT22;23625;48.784;9.336;2023-04-19T10:15:37;13.40;96.10
37786;DHT22;23625;48.784;9.336;2023-04-19T10:18:04;13.30;97.50
37786;DHT22;23625;48.784;9.336;2023-04-19T10:20:39;13.30;96.50
37786;DHT22;23625;48.784;9.336;2023-04-19T10:23:06;13.30;95.90
37786;DHT22;23625;48.784;9.336;2023-04-19T10:25:36;13.30;97.50
37786;DHT22;23625;48.784;9.336;2023-04-19T10:28:02;13.50;96.40
37786;DHT22;23625;48.784;9.336;2023-04-19T10:30:27;13.70;95.20
37786;DHT22;23625;48.784;9.336;2023-04-19T10:32:57;13.90;95.10
37786;DHT22;23625;48.784;9.336;2023-04-19T10:35:33;13.80;92.60
37786;DHT22;23625;48.784;9.336;2023-04-19T10:38:11;13.70;93.50
37786;DHT22;23625;48.784;9.336;2023-04-19T10:40:57;13.60;92.80
37786;DHT22;23625;48.784;9.336;2023-04-19T10:43:29;13.50;94.20
37786;DHT22;23625;48.784;9.336;2023-04-19T10:46:14;13.40;96.20
37786;DHT22;23625;48.784;9.336;2023-04-19T10:48:50;13.40;94.90
37786;DHT22;23625;48.784;9.336;2023-04-19T10:51:21;13.40;95.90
37786;DHT22;23625;48.784;9.336;2023-04-19T10:56:14;13.30;98.10
37786;DHT22;23625;48.784;9.336;2023-04-19T11:01:31;13.50;98.20
37786;DHT22;23625;48.784;9.336;2023-04-19T11:04:04;13.60;96.70
37786;DHT22;23625;48.784;9.336;2023-04-19T11:06:34;13.40;99.80
37786;DHT22;23625;48.784;9.336;2023-04-19T11:09:00;13.30;99.30
37786;DHT22;23625;48.784;9.336;2023-04-19T11:11:35;13.20;99.90
37786;DHT22;23625;48.784;9.336;2023-04-19T11:14:02;13.00;99.90
37786;DHT22;23625;48.784;9.336;2023-04-19T11:16:29;12.90;99.90
37786;DHT22;23625;48.784;9.336;2023-04-19T11:18:54;12.80;99.90
37786;DHT22;23625;48.784;9.336;2023-04-19T11:21:20;12.80;99.90
37786;DHT22;23625;48.784;9.336;2023-04-19T11:23:46;12.80;99.90
37786;DHT22;23625;48.784;9.336;2023-04-19T11:26:13;12.80;99.90
37786;DHT22;23625;48.784;9.336;2023-04-19T11:28:39;12.60;99.90
37786;DHT22;23625;48.784;9.336;2023-04-19T11:31:05;12.60;99.90
37786;DHT22;23625;48.784;9.336;2023-04-19T11:33:35;12.50;99.90
37786;DHT22;23625;48.784;9.336;2023-04-19T11:36:00;12.30;99.90
37786;DHT22;23625;48.784;9.336;2023-04-19T11:38:27;12.30;99.90
37786;DHT22;23625;48.784;9.336;2023-04-19T11:41:00;12.30;99.90
37786;DHT22;23625;48.784;9.336;2023-04-19T11:43:35;12.10;99.90
37786;DHT22;23625;48.784;9.336;2023-04-19T11:46:08;11.90;99.90
37786;DHT22;23625;48.784;9.336;2023-04-19T11:48:35;11.90;99.90
37786;DHT22;23625;48.784;9.336;2023-04-19T11:51:01;11.80;99.90
37786;DHT22;23625;48.784;9.336;2023-04-19T11:53:28;11.70;99.90
37786;DHT22;23625;48.784;9.336;2023-04-19T11:56:06;11.50;99.90
37786;DHT22;23625;48.784;9.336;2023-04-19T11:58:37;11.40;99.90
37786;DHT22;23625;48.784;9.336;2023-04-19T12:03:31;11.40;99.90
37786;DHT22;23625;48.784;9.336;2023-04-19T12:06:01;11.20;99.90
37786;DHT22;23625;48.784;9.336;2023-04-19T12:08:50;11.10;99.90
37786;DHT22;23625;48.784;9.336;2023-04-19T12:11:18;11.10;99.90
37786;DHT22;23625;48.784;9.336;2023-04-19T12:13:44;11.10;99.90
37786;DHT22;23625;48.784;9.336;2023-04-19T12:16:11;11.10;99.90
37786;DHT22;23625;48.784;9.336;2023-04-19T12:18:47;11.00;99.90
37786;DHT22;23625;48.784;9.336;2023-04-19T12:21:25;10.90;99.90
37786;DHT22;23625;48.784;9.336;2023-04-19T12:23:58;10.90;99.90
37786;DHT22;23625;48.784;9.336;2023-04-19T12:26:24;10.70;99.90
37786;DHT22;23625;48.784;9.336;2023-04-19T12:28:52;10.70;99.90
37786;DHT22;23625;48.784;9.336;2023-04-19T12:31:17;10.70;99.90
37786;DHT22;23625;48.784;9.336;2023-04-19T12:33:45;10.70;99.90
37786;DHT22;23625;48.784;9.336;2023-04-19T12:36:11;10.60;99.90
37786;DHT22;23625;48.784;9.336;2023-04-19T12:38:36;10.50;99.90
37786;DHT22;23625;48.784;9.336;2023-04-19T12:41:02;10.50;99.90
37786;DHT22;23625;48.784;9.336;2023-04-19T12:43:27;10.50;99.90
37786;DHT22;23625;48.784;9.336;2023-04-19T12:45:54;10.40;99.90
37786;DHT22;23625;48.784;9.336;2023-04-19T12:48:20;10.40;99.90
37786;DHT22;23625;48.784;9.336;2023-04-19T12:50:46;10.40;99.90
37786;DHT22;23625;48.784;9.336;2023-04-19T12:53:11;10.30;99.90
37786;DHT22;23625;48.784;9.336;2023-04-19T12:55:37;10.30;99.90
37786;DHT22;23625;48.784;9.336;2023-04-19T12:58:02;10.20;99.90
37786;DHT22;23625;48.784;9.336;2023-04-19T13:00:28;10.20;99.90
37786;DHT22;23625;48.784;9.336;2023-04-19T13:03:03;10.20;99.90
37786;DHT22;23625;48.784;9.336;2023-04-19T13:05:28;10.20;99.90
37786;DHT22;23625;48.784;9.336;2023-04-19T13:07:54;10.20;99.90
37786;DHT22;23625;48.784;9.336;2023-04-19T13:10:20;10.20;99.90
37786;DHT22;23625;48.784;9.336;2023-04-19T13:12:45;10.20;99.90
37786;DHT22;23625;48.784;9.336;2023-04-19T13:18:46;10.10;99.90
37786;DHT22;23625;48.784;9.336;2023-04-19T13:21:11;10.00;99.90
37786;DHT22;23625;48.784;9.336;2023-04-19T13:23:37;10.00;99.90
37786;DHT22;23625;48.784;9.336;2023-04-19T13:26:02;10.10;99.90
37786;DHT22;23625;48.784;9.336;2023-04-19T13:28:28;10.10;99.90
37786;DHT22;23625;48.784;9.336;2023-04-19T13:30:54;10.10;99.90
37786;DHT22;23625;48.784;9.336;2023-04-19T13:33:20;10.20;99.90
37786;DHT22;23625;48.784;9.336;2023-04-19T13:35:46;10.20;99.90
37786;DHT22;23625;48.784;9.336;2023-04-19T13:38:12;10.20;99.90
37786;DHT22;23625;48.784;9.336;2023-04-19T13:40:37;10.20;99.90
37786;DHT22;23625;48.784;9.336;2023-04-19T13:43:03;10.30;99.90
37786;DHT22;23625;48.784;9.336;2023-04-19T13:45:28;10.30;99.90
37786;DHT22;23625;48.784;9.336;2023-04-19T13:47:54;10.40;99.90
37786;DHT22;23625;48.784;9.336;2023-04-19T13:50:19;10.40;99.90
37786;DHT22;23625;48.784;9.336;2023-04-19T13:52:45;10.40;99.90
37786;DHT22;23625;48.784;9.336;2023-04-19T13:55:11;10.30;99.90
37786;DHT22;23625;48.784;9.336;2023-04-19T13:57:36;10.50;99.90
37786;DHT22;23625;48.784;9.336;2023-04-19T14:00:02;10.50;99.90
37786;DHT22;23625;48.784;9.336;2023-04-19T14:02:28;10.50;99.90
37786;DHT22;23625;48.784;9.336;2023-04-19T14:04:53;10.40;99.90
37786;DHT22;23625;48.784;9.336;2023-04-19T14:07:21;10.50;99.90
37786;DHT22;23625;48.784;9.336;2023-04-19T14:09:46;10.50;99.90
37786;DHT22;23625;48.784;9.336;2023-04-19T14:12:12;10.50;99.90
37786;DHT22;23625;48.784;9.336;2023-04-19T14:14:38;10.50;99.90
37786;DHT22;23625;48.784;9.336;2023-04-19T14:17:03;10.60;99.90
37786;DHT22;23625;48.784;9.336;2023-04-19T14:19:29;10.70;99.90
37786;DHT22;23625;48.784;9.336;2023-04-19T14:21:55;10.70;99.90
37786;DHT22;23625;48.784;9.336;2023-04-19T14:24:21;10.80;99.90
37786;DHT22;23625;48.784;9.336;2023-04-19T14:26:46;11.00;99.90
37786;DHT22;23625;48.784;9.336;2023-04-19T14:29:15;11.10;99.90
37786;DHT22;23625;48.784;9.336;2023-04-19T14:31:40;11.20;99.90
37786;DHT22;23625;48.784;9.336;2023-04-19T14:34:06;11.20;99.90
37786;DHT22;23625;48.784;9.336;2023-04-19T14:36:31;11.30;99.90
37786;DHT22;23625;48.784;9.336;2023-04-19T14:38:57;11.40;99.90
37786;DHT22;23625;48.784;9.336;2023-04-19T14:41:22;11.50;99.90
37786;DHT22;23625;48.784;9.336;2023-04-19T14:43:48;11.50;99.90
37786;DHT22;23625;48.784;9.336;2023-04-19T14:46:14;11.50;99.90
37786;DHT22;23625;48.784;9.336;2023-04-19T14:48:40;11.40;99.90
37786;DHT22;23625;48.784;9.336;2023-04-19T14:51:06;11.30;99.90
37786;DHT22;23625;48.784;9.336;2023-04-19T14:53:35;11.30;99.90
37786;DHT22;23625;48.784;9.336;2023-04-19T14:56:03;11.20;99.90
37786;DHT22;23625;48.784;9.336;2023-04-19T14:58:31;11.20;99.90
37786;DHT22;23625;48.784;9.336;2023-04-19T15:00:58;11.30;99.90
37786;DHT22;23625;48.784;9.336;2023-04-19T15:03:23;11.40;99.90
37786;DHT22;23625;48.784;9.336;2023-04-19T15:05:49;11.30;99.90
37786;DHT22;23625;48.784;9.336;2023-04-19T15:08:15;11.10;99.90
37786;DHT22;23625;48.784;9.336;2023-04-19T15:10:40;11.30;99.90
37786;DHT22;23625;48.784;9.336;2023-04-19T15:13:06;11.30;99.90
37786;DHT22;23625;48.784;9.336;2023-04-19T15:15:32;11.40;99.90
37786;DHT22;23625;48.784;9.336;2023-04-19T15:17:57;11.40;99.90
37786;DHT22;23625;48.784;9.336;2023-04-19T15:20:23;11.40;99.90
37786;DHT22;23625;48.784;9.336;2023-04-19T15:22:49;11.50;99.90
37786;DHT22;23625;48.784;9.336;2023-04-19T15:25:14;11.50;99.90
37786;DHT22;23625;48.784;9.336;2023-04-19T15:27:40;11.50;99.90
37786;DHT22;23625;48.784;9.336;2023-04-19T15:30:07;11.50;99.90
37786;DHT22;23625;48.784;9.336;2023-04-19T15:32:32;11.70;99.90
37786;DHT22;23625;48.784;9.336;2023-04-19T15:35:01;11.80;99.90
37786;DHT22;23625;48.784;9.336;2023-04-19T15:37:26;12.00;99.90
37786;DHT22;23625;48.784;9.336;2023-04-19T15:39:52;12.10;99.90
37786;DHT22;23625;48.784;9.336;2023-04-19T15:42:17;12.10;99.90
37786;DHT22;23625;48.784;9.336;2023-04-19T15:44:43;12.30;99.90